Time;durP1;ratioP1;P1;durP2;ratioP2;P2;SDS_P1;SDS_P2;PMS_P1;PMS_P2;Temp;Humidity;BMP_temperature;BMP_pressure;BME280_temperature;BME280_humidity;BME280_pressure;Samples;Min_cycle;Max_cycle;Signal;HPM_P1;HPM_P2
2023/06/10 00:02:07;;;;;;;13.02;5.63;;;;;;;;;;5028667;28;20383;-74
2023/06/10 00:04:34;;;;;;;9.68;5.15;;;;;;;;;;5027980;28;20060;-74
2023/06/10 00:07:00;;;;;;;9.90;5.15;;;;;;;;;;5028248;28;20025;-74
2023/06/10 00:09:26;;;;;;;9.50;4.93;;;;;;;;;;5028562;28;20046;-74
2023/06/10 00:11:52;;;;;;;11.23;4.45;;;;;;;;;;5031172;28;20382;-73
2023/06/10 00:14:18;;;;;;;9.38;4.60;;;;;;;;;;5026673;28;20447;-74
2023/06/10 00:16:44;;;;;;;8.52;5.03;;;;;;;;;;5030737;28;20104;-73
2023/06/10 00:19:13;;;;;;;11.27;5.20;;;;;;;;;;5028923;28;20121;-74
2023/06/10 00:21:44;;;;;;;7.03;4.57;;;;;;;;;;5029869;28;20030;-73
2023/06/10 00:24:14;;;;;;;7.43;4.65;;;;;;;;;;5028070;28;20029;-74
2023/06/10 00:26:40;;;;;;;16.73;4.28;;;;;;;;;;5030322;28;20033;-72
2023/06/10 00:29:07;;;;;;;10.35;4.32;;;;;;;;;;5026805;28;20449;-74
2023/06/10 00:31:34;;;;;;;11.82;4.70;;;;;;;;;;5029708;28;20140;-73
2023/06/10 00:34:00;;;;;;;10.90;4.38;;;;;;;;;;5029289;28;20038;-73
2023/06/10 00:36:26;;;;;;;9.15;4.38;;;;;;;;;;5028810;28;20444;-74
2023/06/10 00:38:52;;;;;;;8.05;4.28;;;;;;;;;;5027644;28;20391;-72
2023/06/10 00:41:19;;;;;;;6.15;3.88;;;;;;;;;;5029555;28;20128;-74
2023/06/10 00:43:45;;;;;;;9.55;4.55;;;;;;;;;;5029011;28;20104;-74
2023/06/10 00:46:12;;;;;;;12.15;4.63;;;;;;;;;;5023358;28;20034;-75
2023/06/10 00:48:38;;;;;;;13.25;4.55;;;;;;;;;;5026431;28;20169;-74
2023/06/10 00:51:05;;;;;;;8.50;5.07;;;;;;;;;;5023007;28;20025;-73
2023/06/10 00:53:32;;;;;;;11.35;4.38;;;;;;;;;;5030148;28;20017;-74
2023/06/10 00:55:58;;;;;;;9.02;4.32;;;;;;;;;;5028534;28;20375;-73
2023/06/10 00:58:25;;;;;;;11.52;4.20;;;;;;;;;;5031561;28;20045;-75
2023/06/10 01:00:51;;;;;;;9.38;4.28;;;;;;;;;;5027873;28;20034;-75
2023/06/10 01:03:18;;;;;;;8.73;3.67;;;;;;;;;;5029948;28;20552;-75
2023/06/10 01:05:44;;;;;;;8.95;4.15;;;;;;;;;;5032689;28;20121;-75
2023/06/10 01:08:28;;;;;;;9.10;4.45;;;;;;;;;;5032402;28;20041;-75
2023/06/10 01:10:58;;;;;;;9.55;4.22;;;;;;;;;;5030809;28;20033;-75
2023/06/10 01:13:28;;;;;;;11.88;5.00;;;;;;;;;;5026812;28;20125;-75
2023/06/10 01:15:54;;;;;;;8.63;4.13;;;;;;;;;;5029717;28;20112;-75
2023/06/10 01:18:21;;;;;;;7.43;3.83;;;;;;;;;;5029965;28;20045;-74
2023/06/10 01:20:48;;;;;;;11.15;4.28;;;;;;;;;;5033059;28;20082;-74
2023/06/10 01:23:14;;;;;;;12.85;4.95;;;;;;;;;;5030036;28;20036;-74
2023/06/10 01:25:47;;;;;;;7.95;3.95;;;;;;;;;;5028441;28;20034;-74
2023/06/10 01:28:15;;;;;;;6.70;4.65;;;;;;;;;;5016298;28;20542;-75
2023/06/10 01:31:18;;;;;;;6.70;4.30;;;16.70;99.90;;;;;;5024729;28;20152;-74
2023/06/10 01:33:46;;;;;;;9.80;3.88;;;;;;;;;;5006638;28;20037;-74
2023/06/10 01:36:13;;;;;;;7.40;4.30;;;;;;;;;;5031098;28;20416;-74
2023/06/10 01:38:46;;;;;;;8.23;4.60;;;;;;;;;;5031886;28;20052;-74
2023/06/10 01:41:17;;;;;;;9.00;4.72;;;;;;;;;;5030675;28;20108;-74
2023/06/10 01:43:43;;;;;;;12.73;4.90;;;;;;;;;;5031963;28;20273;-74
2023/06/10 01:46:10;;;;;;;11.60;4.60;;;;;;;;;;5026750;28;20034;-73
2023/06/10 01:48:36;;;;;;;10.45;4.13;;;;;;;;;;5021418;28;20167;-73
2023/06/10 01:51:02;;;;;;;9.57;4.55;;;;;;;;;;5031024;28;20032;-74
2023/06/10 01:53:31;;;;;;;12.10;5.32;;;;;;;;;;5026357;28;20040;-73
2023/06/10 01:55:57;;;;;;;9.60;4.47;;;;;;;;;;5035535;28;20077;-74
2023/06/10 01:58:23;;;;;;;9.95;4.68;;;;;;;;;;5028722;28;20182;-75
2023/06/10 02:00:49;;;;;;;9.55;4.50;;;;;;;;;;5029682;28;20022;-74
2023/06/10 02:03:15;;;;;;;10.23;4.75;;;;;;;;;;5029087;28;20394;-75
2023/06/10 02:05:43;;;;;;;9.60;4.78;;;;;;;;;;5029178;28;20045;-74
2023/06/10 02:08:09;;;;;;;10.73;3.90;;;;;;;;;;5029165;28;20037;-75
2023/06/10 02:10:35;;;;;;;8.38;4.00;;;;;;;;;;5029911;28;20052;-74
2023/06/10 02:13:01;;;;;;;8.25;4.00;;;;;;;;;;5026414;28;20032;-74
2023/06/10 02:15:27;;;;;;;10.77;5.15;;;;;;;;;;5030841;28;20025;-74
2023/06/10 02:17:54;;;;;;;11.63;5.18;;;;;;;;;;5032321;28;20036;-75
2023/06/10 02:20:20;;;;;;;11.15;5.22;;;;;;;;;;5029872;28;20033;-73
2023/06/10 02:22:46;;;;;;;12.02;5.45;;;;;;;;;;5031421;28;20026;-74
2023/06/10 02:25:13;;;;;;;11.63;5.10;;;;;;;;;;5031710;28;20037;-74
2023/06/10 02:27:39;;;;;;;8.65;4.95;;;;;;;;;;5029232;28;20036;-74
2023/06/10 02:30:05;;;;;;;7.68;5.45;;;;;;;;;;5028324;28;20038;-74
2023/06/10 02:32:31;;;;;;;8.55;5.20;;;;;;;;;;5031125;28;20065;-74
2023/06/10 02:34:59;;;;;;;9.40;5.05;;;;;;;;;;5029414;28;20483;-73
2023/06/10 02:37:26;;;;;;;7.93;5.20;;;;;;;;;;5030907;28;20037;-74
2023/06/10 02:39:51;;;;;;;9.00;4.70;;;;;;;;;;5029972;28;20021;-73
2023/06/10 02:42:18;;;;;;;8.75;5.22;;;;;;;;;;5022904;28;20069;-74
2023/06/10 02:44:43;;;;;;;8.57;4.45;;;;;;;;;;5028527;28;20398;-74
2023/06/10 02:47:10;;;;;;;8.65;4.88;;;;;;;;;;5029984;28;20029;-74
2023/06/10 02:49:36;;;;;;;11.18;5.30;;;;;;;;;;5025886;28;20156;-75
2023/06/10 02:52:02;;;;;;;9.00;5.07;;;;;;;;;;5024141;28;20044;-74
2023/06/10 02:54:28;;;;;;;14.88;5.45;;;;;;;;;;5021301;28;20095;-74
2023/06/10 02:56:55;;;;;;;9.38;5.18;;;;;;;;;;5028767;28;20474;-74
2023/06/10 02:59:21;;;;;;;12.65;5.28;;;;;;;;;;5030990;28;20030;-74
2023/06/10 03:01:48;;;;;;;10.43;5.20;;;;;;;;;;5030988;28;20033;-74
2023/06/10 03:04:14;;;;;;;10.18;4.95;;;;;;;;;;5024536;28;20144;-75
2023/06/10 03:06:40;;;;;;;12.10;4.43;;;;;;;;;;5030086;28;20108;-74
2023/06/10 03:09:10;;;;;;;8.10;4.75;;;;;;;;;;5029867;28;20045;-74
2023/06/10 03:11:36;;;;;;;8.40;5.35;;;;;;;;;;5029329;28;20364;-74
2023/06/10 03:14:02;;;;;;;8.95;5.22;;;;;;;;;;5028122;28;20029;-74
2023/06/10 03:16:30;;;;;;;11.43;4.75;;;;;;;;;;5029877;28;20037;-73
2023/06/10 03:18:56;;;;;;;13.25;5.20;;;;;;;;;;5026608;28;20030;-73
2023/06/10 03:21:22;;;;;;;10.05;4.80;;;;;;;;;;5027619;28;20041;-74
2023/06/10 03:23:48;;;;;;;10.02;5.47;;;;;;;;;;5029001;28;20029;-73
2023/06/10 03:26:15;;;;;;;8.68;4.82;;;;;;;;;;5027533;28;20034;-74
2023/06/10 03:28:41;;;;;;;9.38;5.18;;;;;;;;;;5024439;28;20044;-73
2023/06/10 03:31:07;;;;;;;7.07;4.28;;;;;;;;;;5022797;28;20034;-74
2023/06/10 03:33:33;;;;;;;10.52;5.20;;;;;;;;;;5029865;28;20026;-73
2023/06/10 03:35:59;;;;;;;13.77;5.68;;;;;;;;;;5026861;28;20790;-73
2023/06/10 03:38:25;;;;;;;10.10;4.88;;;;;;;;;;5027987;28;20475;-74
2023/06/10 03:40:51;;;;;;;11.00;5.90;;;;;;;;;;5031123;28;20041;-73
2023/06/10 03:43:17;;;;;;;13.90;5.30;;;;;;;;;;5029628;28;20029;-74
2023/06/10 03:45:43;;;;;;;10.65;5.72;;;;;;;;;;5029801;28;20057;-74
2023/06/10 03:48:10;;;;;;;9.52;5.30;;;;;;;;;;5027986;28;20069;-73
2023/06/10 03:50:36;;;;;;;12.32;4.80;;;;;;;;;;5025758;28;20025;-74
2023/06/10 03:53:02;;;;;;;12.43;5.60;;;;;;;;;;5028755;28;20048;-75
2023/06/10 03:55:29;;;;;;;9.63;5.38;;;;;;;;;;5028090;28;20033;-74
2023/06/10 03:57:55;;;;;;;9.55;5.70;;;;;;;;;;5028554;28;20045;-75
2023/06/10 04:00:21;;;;;;;7.55;4.97;;;;;;;;;;5026576;28;20034;-73
2023/06/10 04:02:49;;;;;;;15.50;5.78;;;;;;;;;;5015918;28;20054;-73
2023/06/10 04:05:21;;;;;;;8.93;4.95;;;;;;;;;;5019297;28;20558;-75
2023/06/10 04:07:48;;;;;;;7.40;5.20;;;;;;;;;;5029208;28;20356;-75
2023/06/10 04:10:14;;;;;;;13.32;5.38;;;;;;;;;;5025468;28;20043;-75
2023/06/10 04:12:40;;;;;;;10.88;5.22;;;;;;;;;;5030774;28;20029;-74
2023/06/10 04:15:07;;;;;;;13.90;5.60;;;;;;;;;;5023418;28;20570;-74
2023/06/10 04:17:33;;;;;;;10.23;5.93;;;;;;;;;;5029245;28;20034;-74
2023/06/10 04:20:00;;;;;;;9.82;5.63;;;;;;;;;;5027367;28;20034;-74
2023/06/10 04:22:26;;;;;;;12.35;5.40;;;;;;;;;;5030367;28;20044;-74
2023/06/10 04:24:52;;;;;;;13.07;5.85;;;;;;;;;;5025189;28;20061;-74
2023/06/10 04:27:18;;;;;;;15.55;4.90;;;;;;;;;;5028872;28;20042;-75
2023/06/10 04:29:44;;;;;;;8.30;5.75;;;;;;;;;;5030352;28;20045;-74
2023/06/10 04:32:10;;;;;;;11.75;5.53;;;;;;;;;;5014007;28;20038;-74
2023/06/10 04:34:38;;;;;;;11.32;5.38;;;;;;;;;;5032263;28;20502;-74
2023/06/10 04:37:05;;;;;;;11.25;6.45;;;;;;;;;;5033051;28;20029;-74
2023/06/10 04:39:31;;;;;;;11.60;6.15;;;;;;;;;;5028407;28;20069;-74
2023/06/10 04:41:57;;;;;;;12.38;5.35;;;;;;;;;;5030749;28;20034;-74
2023/06/10 04:44:23;;;;;;;9.82;5.25;;;;;;;;;;5028832;28;20039;-74
2023/06/10 04:46:49;;;;;;;8.07;4.95;;;;;;;;;;5018413;28;20030;-74
2023/06/10 04:49:15;;;;;;;11.68;5.85;;;;;;;;;;5024859;28;20029;-75
2023/06/10 04:51:41;;;;;;;10.60;5.38;;;;;;;;;;5015557;28;20090;-75
2023/06/10 04:54:07;;;;;;;11.52;5.53;;;;;;;;;;5014156;28;20049;-74
2023/06/10 04:56:33;;;;;;;10.73;5.40;;;;;;;;;;5014782;28;20037;-73
2023/06/10 04:59:00;;;;;;;50.70;31.92;;;;;;;;;;5016450;28;20037;-74
2023/06/10 05:01:27;;;;;;;28.55;16.38;;;;;;;;;;5030443;28;20469;-74
2023/06/10 05:03:53;;;;;;;9.95;4.57;;;;;;;;;;5032979;28;20083;-74
2023/06/10 05:06:19;;;;;;;12.27;4.65;;;;;;;;;;5033753;28;20371;-74
2023/06/10 05:08:45;;;;;;;9.30;5.32;;;;;;;;;;5028268;28;20071;-75
2023/06/10 05:11:11;;;;;;;9.80;4.72;;;;;;;;;;5029359;28;20444;-74
2023/06/10 05:13:39;;;;;;;11.48;5.38;;;;;;;;;;5030283;28;20036;-73
2023/06/10 05:16:07;;;;;;;12.90;4.28;;;;;;;;;;5032256;28;20037;-73
2023/06/10 05:18:33;;;;;;;9.88;5.28;;;;;;;;;;5020128;28;20085;-73
2023/06/10 05:20:59;;;;;;;10.57;4.60;;;;;;;;;;5033588;28;20541;-75
2023/06/10 05:23:25;;;;;;;8.25;4.30;;;;;;;;;;5029570;28;20030;-72
2023/06/10 05:25:51;;;;;;;9.18;4.93;;;;;;;;;;5028480;28;20135;-75
2023/06/10 05:28:18;;;;;;;11.93;4.53;;;;;;;;;;5032729;28;20112;-76
2023/06/10 05:30:44;;;;;;;13.82;5.07;;;;;;;;;;5032740;28;20029;-72
2023/06/10 05:33:10;;;;;;;14.82;6.65;;;;;;;;;;5013893;28;20061;-72
2023/06/10 05:35:36;;;;;;;21.45;11.30;;;;;;;;;;5031019;28;20026;-73
2023/06/10 05:38:03;;;;;;;16.77;7.60;;;;;;;;;;5030010;28;20108;-72
2023/06/10 05:40:29;;;;;;;9.13;4.78;;;;;;;;;;5013425;28;20152;-73
2023/06/10 05:42:55;;;;;;;10.27;4.50;;;;;;;;;;5027279;28;20057;-73
2023/06/10 05:45:21;;;;;;;10.00;4.80;;;;;;;;;;5021214;28;20172;-74
2023/06/10 05:47:47;;;;;;;14.20;5.13;;;;;;;;;;5025402;28;20480;-74
2023/06/10 05:50:13;;;;;;;11.35;5.10;;;;;;;;;;5029164;28;20120;-73
2023/06/10 05:52:42;;;;;;;8.82;4.47;;;;;;;;;;5030393;28;20375;-75
2023/06/10 05:55:09;;;;;;;23.42;12.77;;;;;;;;;;5031894;28;20052;-74
2023/06/10 05:57:35;;;;;;;15.23;7.32;;;;;;;;;;5032513;28;20033;-74
2023/06/10 06:00:01;;;;;;;12.65;4.65;;;;;;;;;;5028285;28;20471;-77
2023/06/10 06:02:27;;;;;;;10.45;5.10;;;;;;;;;;5028463;28;20041;-76
2023/06/10 06:04:53;;;;;;;8.15;4.85;;;;;;;;;;5031673;28;20344;-76
2023/06/10 06:07:20;;;;;;;13.10;4.00;;;;;;;;;;5030231;28;20042;-76
2023/06/10 06:09:46;;;;;;;11.20;4.30;;;;;;;;;;5030236;28;20137;-76
2023/06/10 06:12:12;;;;;;;15.45;3.78;;;;;;;;;;5030742;28;20097;-78
2023/06/10 06:14:39;;;;;;;8.65;4.15;;;;;;;;;;5032806;28;20100;-76
2023/06/10 06:17:06;;;;;;;10.88;4.30;;;;;;;;;;5031251;28;20648;-76
2023/06/10 06:19:31;;;;;;;12.50;4.47;;;;;;;;;;5029877;28;20391;-76
2023/06/10 06:21:57;;;;;;;9.00;4.75;;;;;;;;;;5025275;28;20034;-76
2023/06/10 06:24:23;;;;;;;10.75;4.43;;;;;;;;;;5030368;28;20026;-77
2023/06/10 06:26:49;;;;;;;11.10;4.25;;;;;;;;;;5031478;28;20487;-75
2023/06/10 06:29:15;;;;;;;7.45;4.35;;;;;;;;;;5031810;28;20041;-76
2023/06/10 06:31:41;;;;;;;8.82;4.28;;;;;;;;;;5026076;28;20464;-75
2023/06/10 06:34:10;;;;;;;10.85;4.38;;;;;;;;;;5030737;28;20053;-76
2023/06/10 06:36:36;;;;;;;8.77;4.05;;;;;;;;;;5016213;28;20096;-75
2023/06/10 06:39:03;;;;;;;7.75;4.10;;;;;;;;;;5027448;28;20092;-75
2023/06/10 06:41:29;;;;;;;11.45;4.88;;;;;;;;;;5031416;28;20053;-74
2023/06/10 06:43:55;;;;;;;14.65;7.45;;;;;;;;;;5031377;28;20057;-70
2023/06/10 06:46:22;;;;;;;9.05;3.42;;;;;;;;;;5025448;28;20382;-73
2023/06/10 06:48:48;;;;;;;7.35;3.72;;;;;;;;;;5023147;28;20364;-75
2023/06/10 06:51:14;;;;;;;13.52;3.83;;;;;;;;;;5023886;28;20026;-76
2023/06/10 06:53:45;;;;;;;8.60;3.65;;;;;;;;;;5026938;28;20509;-76
2023/06/10 06:56:11;;;;;;;8.13;3.83;;;;;;;;;;5022376;28;20376;-75
2023/06/10 06:58:37;;;;;;;11.32;4.25;;;;;;;;;;5026803;28;20530;-75
2023/06/10 07:01:03;;;;;;;17.35;4.18;;;;;;;;;;5031378;28;20064;-75
2023/06/10 07:03:29;;;;;;;7.20;3.72;;;;;;;;;;5029653;28;20045;-76
2023/06/10 07:05:55;;;;;;;9.45;3.80;;;;;;;;;;5030464;28;20088;-74
2023/06/10 07:08:21;;;;;;;8.73;4.05;;;;;;;;;;5029566;28;20041;-76
2023/06/10 07:10:49;;;;;;;7.55;3.75;;;;;;;;;;5046659;28;20104;-76
2023/06/10 07:13:15;;;;;;;7.78;3.75;;;;;;;;;;5027412;28;20037;-76
2023/06/10 07:15:41;;;;;;;6.72;3.70;;;;;;;;;;5030424;28;20049;-75
2023/06/10 07:18:07;;;;;;;9.40;4.28;;;;;;;;;;5029332;28;20029;-75
2023/06/10 07:20:33;;;;;;;8.07;3.45;;;;;;;;;;5031752;28;20035;-75
2023/06/10 07:22:59;;;;;;;10.48;3.90;;;;;;;;;;5030482;28;20063;-75
2023/06/10 07:25:25;;;;;;;8.63;4.32;;;;;;;;;;5031130;28;20108;-75
2023/06/10 07:27:51;;;;;;;6.43;3.72;;;;;;;;;;5028436;28;20052;-75
2023/06/10 07:30:17;;;;;;;10.05;3.92;;;;;;;;;;5030401;28;20052;-75
2023/06/10 07:32:43;;;;;;;7.93;3.97;;;;;;;;;;5027752;28;20030;-75
2023/06/10 07:35:11;;;;;;;7.05;3.55;;;;;;;;;;5029860;28;20037;-75
2023/06/10 07:37:37;;;;;;;7.55;3.75;;;;;;;;;;5028827;28;20027;-75
2023/06/10 07:40:03;;;;;;;9.15;4.18;;;;;;;;;;5030129;28;20041;-75
2023/06/10 07:42:29;;;;;;;12.70;3.92;;;;;;;;;;5030540;28;20079;-75
2023/06/10 07:44:55;;;;;;;8.07;3.63;;;;;;;;;;5031030;28;20033;-75
2023/06/10 07:47:21;;;;;;;7.18;3.30;;;;;;;;;;5029093;28;20532;-76
2023/06/10 07:49:47;;;;;;;6.38;3.83;;;;;;;;;;5029384;28;20033;-76
2023/06/10 07:52:13;;;;;;;9.63;3.47;;;;;;;;;;5030663;28;20115;-76
2023/06/10 07:54:39;;;;;;;9.00;4.03;;;;;;;;;;5029235;28;20041;-75
2023/06/10 07:57:06;;;;;;;8.43;3.80;;;;;;;;;;5025572;28;20042;-76
2023/06/10 07:59:32;;;;;;;10.38;4.72;;;;;;;;;;5025778;28;20033;-76
2023/06/10 08:01:58;;;;;;;10.23;4.00;;;;;;;;;;5030285;28;20030;-76
2023/06/10 08:04:24;;;;;;;9.93;4.05;;;;;;;;;;5030412;28;20059;-76
2023/06/10 08:06:50;;;;;;;8.73;3.65;;;;;;;;;;5045654;28;20030;-77
2023/06/10 08:09:18;;;;;;;8.73;3.50;;;;;;;;;;5033843;28;20044;-77
2023/06/10 08:11:44;;;;;;;9.48;3.22;;;;;;;;;;5030810;28;20026;-76
2023/06/10 08:14:10;;;;;;;6.38;3.10;;;;;;;;;;5032464;28;20044;-76
2023/06/10 08:16:36;;;;;;;5.70;3.10;;;;;;;;;;5034687;28;20025;-76
2023/06/10 08:19:02;;;;;;;10.48;4.00;;;;;;;;;;5034028;28;20402;-76
2023/06/10 08:21:28;;;;;;;6.55;3.15;;;;;;;;;;5033696;28;21647;-76
2023/06/10 08:23:54;;;;;;;8.18;2.92;;;;;;;;;;5033970;28;20417;-75
2023/06/10 08:26:20;;;;;;;7.93;3.35;;;;;;;;;;5034625;28;20158;-76
2023/06/10 08:28:46;;;;;;;7.53;3.88;;;;;;;;;;5030907;28;20029;-76
2023/06/10 08:31:12;;;;;;;6.95;3.30;;;;;;;;;;5027373;28;20524;-76
2023/06/10 08:33:38;;;;;;;6.90;3.17;;;;;;;;;;5041878;28;20033;-76
2023/06/10 08:36:05;;;;;;;5.50;2.80;;;;;;;;;;5020582;28;20065;-77
2023/06/10 08:38:31;;;;;;;7.53;2.92;;;;;;;;;;5023003;28;20029;-79
2023/06/10 08:41:00;;;;;;;6.28;2.90;;;;;;;;;;5022102;28;20131;-84
2023/06/10 08:43:29;;;;;;;5.25;3.22;;;;;;;;;;5027316;28;20022;-83
2023/06/10 08:45:59;;;;;;;5.38;2.60;;;;;;;;;;5025343;28;20049;-81
2023/06/10 08:48:26;;;;;;;6.20;2.97;;;;;;;;;;5027292;28;20029;-84
2023/06/10 08:50:52;;;;;;;6.32;2.78;;;;;;;;;;5025357;28;20022;-84
2023/06/10 08:53:19;;;;;;;7.47;3.58;;;;;;;;;;5027605;28;20064;-81
2023/06/10 08:55:49;;;;;;;20.67;12.85;;;;;;;;;;5007297;28;20040;-81
2023/06/10 08:58:15;;;;;;;7.18;4.18;;;;;;;;;;5026305;28;20030;-80
2023/06/10 09:00:42;;;;;;;5.32;2.90;;;;;;;;;;5028451;28;20045;-80
2023/06/10 09:03:08;;;;;;;7.13;2.90;;;;;;;;;;5023726;28;20053;-83
2023/06/10 09:05:36;;;;;;;4.38;2.85;;;;;;;;;;5022076;28;20114;-81
2023/06/10 09:08:02;;;;;;;7.20;3.25;;;;;;;;;;5024457;28;20029;-80
2023/06/10 09:10:28;;;;;;;7.80;3.35;;;;;;;;;;5023384;28;20029;-80
2023/06/10 09:12:55;;;;;;;6.50;2.45;;;;;;;;;;5023169;28;20037;-80
2023/06/10 09:15:21;;;;;;;8.93;2.30;;;;;;;;;;5024014;28;20650;-81
2023/06/10 09:17:47;;;;;;;5.53;3.35;;;;;;;;;;5022605;28;20036;-81
2023/06/10 09:20:13;;;;;;;5.53;3.15;;;;;;;;;;5025202;28;20052;-84
2023/06/10 09:22:40;;;;;;;4.00;2.53;;;;;;;;;;5021435;28;20021;-83
2023/06/10 09:25:08;;;;;;;5.65;3.05;;;;;;;;;;5022434;28;20039;-82
2023/06/10 09:27:44;;;;;;;5.22;2.95;;;;;;;;;;5025134;28;20145;-82
2023/06/10 09:30:10;;;;;;;6.13;2.65;;;;;;;;;;5024543;28;20037;-82
2023/06/10 09:32:39;;;;;;;11.70;6.13;;;;;;;;;;5025338;28;20040;-81
2023/06/10 09:35:10;;;;;;;8.40;5.60;;;;;;;;;;5024045;28;20032;-83
2023/06/10 09:37:38;;;;;;;5.50;2.70;;;;;;;;;;5026137;28;20069;-79
2023/06/10 09:40:10;;;;;;;4.35;3.08;;;;;;;;;;5022406;28;20033;-83
2023/06/10 09:42:36;;;;;;;;;;;;;;;;;;5036652;28;20533;-80
2023/06/10 09:45:02;;;;;;;9.07;2.50;;;;;;;;;;5031875;28;19924;-79
2023/06/10 09:47:28;;;;;;;5.78;2.40;;;;;;;;;;5022935;28;20033;-79
2023/06/10 09:49:55;;;;;;;4.90;2.33;;;;;;;;;;5023032;28;20141;-80
2023/06/10 09:52:24;;;;;;;3.90;2.63;;;;;;;;;;5025336;28;20025;-80
2023/06/10 09:54:53;;;;;;;3.80;2.63;;;;;;;;;;5022197;28;20045;-82
2023/06/10 09:57:20;;;;;;;3.70;2.50;;;;;;;;;;5018797;28;20115;-77
2023/06/10 09:59:46;;;;;;;5.45;2.67;;;;;;;;;;5020048;28;20033;-80
2023/06/10 10:02:16;;;;;;;7.85;2.58;;;;;;;;;;5015200;28;20394;-81
2023/06/10 10:04:42;;;;;;;5.40;2.50;;;;;;;;;;5022881;28;20043;-81
2023/06/10 10:07:09;;;;;;;7.80;2.50;;;;;;;;;;5024185;28;20033;-84
2023/06/10 10:09:39;;;;;;;6.40;2.78;;;;;;;;;;5025613;28;20049;-83
2023/06/10 10:12:08;;;;;;;7.32;2.30;;;;;;;;;;5023200;28;20025;-85
2023/06/10 10:14:35;;;;;;;10.35;7.05;;;;;;;;;;5003967;28;20052;-84
2023/06/10 10:17:03;;;;;;;9.93;4.30;;;;;;;;;;5023771;28;20041;-83
2023/06/10 10:19:31;;;;;;;6.18;2.95;;;;;;;;;;5026364;28;20029;-83
2023/06/10 10:22:02;;;;;;;5.13;2.13;;;;;;;;;;5024501;28;20386;-84
2023/06/10 10:24:36;;;;;;;5.53;2.42;;;;;;;;;;5023108;28;20167;-80
2023/06/10 10:27:04;;;;;;;5.80;2.42;;;;;;;;;;5024579;28;20061;-79
2023/06/10 10:29:40;;;;;;;7.32;2.47;;;;;;;;;;5021266;28;20037;-81
2023/06/10 10:32:07;;;;;;;3.83;2.53;;;;;;;;;;5022675;28;20158;-83
2023/06/10 10:34:39;;;;;;;6.22;2.35;;;;;;;;;;5025155;28;20033;-82
2023/06/10 10:37:05;;;;;;;3.63;2.28;;;;;;;;;;5024399;28;20459;-80
2023/06/10 10:39:31;;;;;;;4.63;2.28;;;;;;;;;;5025423;28;20048;-82
2023/06/10 10:41:58;;;;;;;7.30;2.47;;;;;;;;;;5025909;28;20033;-80
2023/06/10 10:44:24;;;;;;;5.60;2.90;;;;;;;;;;5021855;28;20417;-84
2023/06/10 10:46:51;;;;;;;5.57;2.47;;;;;;;;;;5023620;28;20041;-83
2023/06/10 10:49:18;;;;;;;6.57;2.40;;;;;;;;;;5023116;28;20034;-81
2023/06/10 10:52:00;;;;;;;4.07;2.30;;;;;;;;;;5025324;28;20041;-80
2023/06/10 10:54:46;;;;;;;7.20;2.55;;;;;;;;;;5023220;28;20034;-83
2023/06/10 10:57:15;;;;;;;3.47;2.30;;;;;;;;;;5026885;28;20115;-83
2023/06/10 10:59:55;;;;;;;9.00;2.80;;;;;;;;;;5030386;28;20025;-83
2023/06/10 11:02:33;;;;;;;3.42;2.22;;;;;;;;;;5024162;28;20491;-82
2023/06/10 11:05:00;;;;;;;3.90;2.20;;;;;;;;;;5019420;28;20033;-85
2023/06/10 11:07:27;;;;;;;5.47;2.40;;;;;;;;;;5023424;28;20273;-83
2023/06/10 11:10:09;;;;;;;3.70;2.08;;;;;;;;;;5025354;28;20524;-84
2023/06/10 11:12:54;;;;;;;7.75;2.85;;;;;;;;;;5021506;28;20033;-84
2023/06/10 11:15:24;;;;;;;7.55;2.42;;;;;;;;;;5023009;28;20040;-82
2023/06/10 11:18:10;;;;;;;8.02;2.72;;;;;;;;;;5017775;28;20060;-81
2023/06/10 11:20:45;;;;;;;6.72;2.45;;;;;;;;;;5019164;28;20041;-83
2023/06/10 11:23:24;;;;;;;5.68;2.42;;;;;;;;;;5018889;28;20045;-83
2023/06/10 11:25:50;;;;;;;6.80;2.33;;;;;;;;;;5021910;28;20029;-83
2023/06/10 11:28:20;;;;;;;2.88;1.92;;;;;;;;;;5023107;28;20146;-84
2023/06/10 11:30:46;;;;;;;4.03;2.33;;;;;;;;;;5024248;28;20037;-85
2023/06/10 11:33:17;;;;;;;5.57;2.20;;;;;;;;;;5022189;28;20069;-80
2023/06/10 11:35:43;;;;;;;8.88;3.85;;;;;;;;;;5022378;28;20017;-76
2023/06/10 11:38:09;;;;;;;6.95;2.22;;;;;;;;;;5025962;28;20037;-77
2023/06/10 11:40:37;;;;;;;3.30;2.13;;;;;;;;;;5027478;28;20037;-76
2023/06/10 11:43:05;;;;;;;3.78;2.00;;;;;;;;;;5029912;28;20421;-76
2023/06/10 11:45:31;;;;;;;3.58;2.25;;;;;;;;;;5027084;28;20022;-76
2023/06/10 11:47:57;;;;;;;3.08;2.03;;;;;;;;;;5030139;28;20037;-77
2023/06/10 11:50:33;;;;;;;2.53;2.03;;;;;;;;;;5030257;28;20026;-76
2023/06/10 11:52:59;;;;;;;7.03;2.28;;;;;;;;;;5030537;28;20032;-76
2023/06/10 11:55:26;;;;;;;3.72;1.90;;;;;;;;;;5028283;28;20029;-77
2023/06/10 11:57:57;;;;;;;3.40;2.00;;;;;;;;;;5018921;28;20467;-76
2023/06/10 12:00:24;;;;;;;7.47;2.15;;;;;;;;;;5027837;28;20030;-76
2023/06/10 12:02:57;;;;;;;7.68;2.47;;;;;;;;;;5029694;28;20057;-76
2023/06/10 12:05:23;;;;;;;4.40;2.28;;;;;;;;;;5027778;28;20041;-76
2023/06/10 12:07:49;;;;;;;3.95;2.05;;;;;;;;;;5041345;28;20360;-77
2023/06/10 12:10:16;;;;;;;3.53;2.13;;;;;;;;;;5031709;28;20048;-77
2023/06/10 12:12:42;;;;;;;4.35;2.20;;;;;;;;;;5028680;28;20078;-77
2023/06/10 12:15:09;;;;;;;3.72;2.28;;;;;;;;;;5028194;28;20475;-77
2023/06/10 12:17:36;;;;;;;4.57;2.03;;;;;;;;;;5030406;28;20026;-76
2023/06/10 12:20:03;;;;;;;15.23;9.68;;;;;;;;;;5020096;28;20021;-86
2023/06/10 12:22:38;;;;;;;7.53;4.18;;;;;;;;;;5028531;28;20072;-85
2023/06/10 12:25:06;;;;;;;5.63;1.90;;;;;;;;;;5028649;28;20025;-79
2023/06/10 12:27:33;;;;;;;3.05;1.98;;;;;;;;;;5032662;28;20099;-77
2023/06/10 12:30:06;;;;;;;3.55;2.00;;;;;;;;;;5034292;28;20037;-78
2023/06/10 12:32:42;;;;;;;3.78;2.00;;;;;;;;;;5030521;28;20030;-78
2023/06/10 12:35:09;;;;;;;4.28;1.95;;;;;;;;;;5029476;28;20116;-77
2023/06/10 12:37:36;;;;;;;2.40;1.80;;;;;;;;;;5028423;28;20494;-77
2023/06/10 12:40:03;;;;;;;7.10;2.20;;;;;;;;;;5029768;28;20132;-78
2023/06/10 12:42:31;;;;;;;3.03;1.88;;;;;;;;;;5025321;28;20346;-78
2023/06/10 12:45:00;;;;;;;4.93;1.85;;;;;;;;;;5028213;28;20033;-77
2023/06/10 12:47:34;;;;;;;3.08;1.90;;;;;;;;;;5026811;28;20029;-77
2023/06/10 12:50:01;;;;;;;4.32;2.15;;;;;;;;;;5030170;28;20032;-78
2023/06/10 12:52:27;;;;;;;4.75;2.15;;;;;;;;;;5029817;28;20053;-77
2023/06/10 12:54:56;;;;;;;4.03;1.90;;;;;;;;;;5032876;28;20029;-78
2023/06/10 12:57:23;;;;;;;4.38;1.92;;;;;;;;;;5033233;28;20040;-77
2023/06/10 12:59:52;;;;;;;9.00;5.50;;;;;;;;;;5020658;28;20037;-76
2023/06/10 13:02:23;;;;;;;3.83;1.90;;;;;;;;;;5031105;28;20037;-72
2023/06/10 13:04:50;;;;;;;6.65;2.08;;;;;;;;;;5039964;28;20056;-72
2023/06/10 13:07:16;;;;;;;3.97;2.33;;;;;;;;;;5032657;28;20045;-72
2023/06/10 13:09:42;;;;;;;3.15;1.90;;;;;;;;;;5032881;28;20044;-72
2023/06/10 13:12:08;;;;;;;4.47;1.92;;;;;;;;;;5017440;28;20387;-72
2023/06/10 13:14:34;;;;;;;5.72;2.17;;;;;;;;;;5030135;28;20092;-74
2023/06/10 13:17:00;;;;;;;6.80;1.95;;;;;;;;;;5024882;28;20084;-72
2023/06/10 13:19:26;;;;;;;4.05;2.30;;;;;;;;;;5026182;28;20045;-72
2023/06/10 13:21:53;;;;;;;6.13;2.10;;;;;;;;;;5032184;28;20038;-72
2023/06/10 13:24:20;;;;;;;3.63;2.50;;;;;;;;;;5031438;28;20053;-73
2023/06/10 13:26:46;;;;;;;4.35;2.33;;;;;;;;;;5032313;28;20410;-72
2023/06/10 13:29:14;;;;;;;7.22;1.95;;;;;;;;;;5026403;28;20030;-72
2023/06/10 13:31:40;;;;;;;3.40;1.58;;;;;;;;;;5031112;28;20087;-72
2023/06/10 13:34:06;;;;;;;4.20;2.00;;;;;;;;;;5026134;28;20039;-72
2023/06/10 13:36:32;;;;;;;2.63;1.70;;;;;;;;;;5029633;28;20178;-72
2023/06/10 13:38:59;;;;;;;5.20;2.05;;;;;;;;;;5028418;28;20109;-73
2023/06/10 13:41:25;;;;;;;4.90;2.00;;;;;;;;;;5032348;28;20108;-73
2023/06/10 13:43:51;;;;;;;5.18;2.10;;;;;;;;;;5028587;28;20171;-72
2023/06/10 13:46:17;;;;;;;5.55;2.30;;;;;;;;;;5041272;28;20116;-73
2023/06/10 13:48:43;;;;;;;8.15;2.00;;;;;;;;;;5023828;28;20498;-73
2023/06/10 13:51:09;;;;;;;5.00;2.00;;;;;;;;;;5027182;28;20383;-73
2023/06/10 13:53:35;;;;;;;6.35;2.15;;;;;;;;;;5025075;28;20044;-72
2023/06/10 13:56:01;;;;;;;3.20;1.73;;;;;;;;;;5024351;28;20046;-72
2023/06/10 13:58:27;;;;;;;5.47;1.73;;;;;;;;;;5024615;28;20041;-72
2023/06/10 14:00:53;;;;;;;6.10;2.00;;;;;;;;;;5017547;28;20034;-72
2023/06/10 14:03:19;;;;;;;4.43;2.13;;;;;;;;;;5021466;28;20053;-73
2023/06/10 14:05:45;;;;;;;2.90;1.73;;;;;;;;;;5031530;28;20104;-73
2023/06/10 14:08:11;;;;;;;9.48;2.28;;;;;;;;;;5025798;28;20550;-72
2023/06/10 14:10:37;;;;;;;6.18;2.58;;;;;;;;;;5026058;28;20042;-73
2023/06/10 14:13:03;;;;;;;4.00;2.05;;;;;;;;;;5015989;28;20520;-72
2023/06/10 14:15:30;;;;;;;5.00;2.15;;;;;;;;;;5022838;28;20156;-76
2023/06/10 14:17:56;;;;;;;5.63;2.40;;;;;;;;;;5028666;28;20030;-76
2023/06/10 14:20:23;;;;;;;3.53;1.95;;;;;;;;;;5031406;28;20487;-76
2023/06/10 14:22:49;;;;;;;6.50;2.10;;;;;;;;;;5032500;28;20119;-76
2023/06/10 14:25:15;;;;;;;6.28;1.92;;;;;;;;;;5025741;28;20479;-77
2023/06/10 14:27:41;;;;;;;2.45;2.08;;;;;;;;;;5019208;28;20105;-76
2023/06/10 14:30:08;;;;;;;3.22;2.20;;;;;;;;;;5021298;28;20030;-76
2023/06/10 14:32:34;;;;;;;5.95;2.17;;;;;;;;;;5020485;28;20052;-77
2023/06/10 14:35:00;;;;;;;5.13;2.40;;;;;;;;;;5020599;28;20030;-76
2023/06/10 14:37:26;;;;;;;2.95;2.20;;;;;;;;;;5024333;28;20195;-76
2023/06/10 14:39:52;;;;;;;3.85;2.15;;;;;;;;;;5027543;28;20407;-76